Aviation Digital Data Service (ADDS)

Output produced by TAFs form (0959 UTC 23 April 2017)
found at http://www.aviationweather.gov/adds/tafs/
 
METAR text: ESSA 230950Z 27011KT 240V300 CAVOK 08/M06 Q1006 R01L/19//95 R08/19//95 R01R/19//95 NOSIG
Conditions at: ESSA (STOCKHOLM/ARLAND, SE) observed 0950 UTC 23 April 2017
Temperature: 8.0°C (46°F)
Dewpoint: -6.0°C (21°F) [RH = 36%]
Pressure (altimeter): 29.70 inches Hg (1006.0 mb)
Winds: from the W (270 degrees) at 13 MPH (11 knots; 5.7 m/s)
Visibility: 6 or more miles (10+ km)
Ceiling: ceiling and visibility are OK
Clouds: unknown
Weather: no significant weather observed at this time

Forecast for: ESSA (STOCKHOLM/ARLAND, SE)
Text: TAF ESSA 230530Z 2306/2406 30012KT CAVOK
Forecast period: 0600 UTC 23 April 2017 to 0600 UTC 24 April 2017
Forecast type: FROM: standard forecast or significant change
Winds: from the WNW (300 degrees) at 14 MPH (12 knots; 6.2 m/s)
Visibility: 6 or more miles (10+ km)
Clouds: not forecast
Weather: NSW  (no significant weather)
Text: PROB40 2312/2319 SHRAGS SCT050CB
Forecast period: 1200 to 1900 UTC 23 April 2017
Forecast type: PROBABLE: 40 percent likelihood of the following during this time
Clouds: scattered clouds at 5000 feet AGL
Weather: SHRA SHGS  (rain showers, small hail or graupel showers)